Noatak Airport Noatak US
ICAO: PAWN
IATA:
Category: Medium
Scheduled Services:

Elevation: 88 ft
TransAlt. 18000 ft.

Airport Communications:
AWOS 3:135.75
ANCHORAGE CNTR:119.2
KOTZEBUE RDO:122.4
CTAF/UNICOM:122.8

PAWN Zoom In..

If you have problems with the map follow the link
https://www.worldairports.se/pages/airport.php?
ICAO=PAWN

Runways:

(A) RW 01 length 3992 ft width 60 ft
---- / hdg 7

(B) RW 19 length 3992 ft width 60 ft
---- / hdg 187

Location; PAWN
Day. 14 / Time. 10.56 Zulu
* Altimeter: 30.15
* Temperature: -09° c. -15.8°f.
* Wind from: 020° Speed 18 kn with Gusts up to 26 kn.
Dewpoint: -19° c.
Visibility: 10 Statute Miles.
Clouds: Clear (automated report).

PAWN 141056Z AUTO 02018G26KT 10SM CLR M09/M19 A3015 RMK AO2 PK WND 02026/1055 SLP225 T10891189 FZRANO


Wind From 020°
Speed 18 kn.

 
 
jpsmedia.com for Web Design worldairports.se 2018   terms of use